Time;durP1;ratioP1;P1;durP2;ratioP2;P2;SDS_P1;SDS_P2;PMS_P1;PMS_P2;Temp;Humidity;BMP_temperature;BMP_pressure;BME280_temperature;BME280_humidity;BME280_pressure;Samples;Min_cycle;Max_cycle;Signal;HPM_P1;HPM_P2
2023/08/26 00:00:48;;;;;;;2.65;2.45;;;;;;;32.08;45.59;98521.16;2076109;28;20049;-54
2023/08/26 00:01:49;;;;;;;3.15;2.85;;;;;;;32.07;45.30;98527.78;2078813;28;20496;-51
2023/08/26 00:02:51;;;;;;;2.88;2.67;;;;;;;32.08;45.22;98523.91;2077736;28;20049;-53
2023/08/26 00:03:52;;;;;;;2.88;2.67;;;;;;;32.10;45.66;98523.63;2079645;28;20049;-53
2023/08/26 00:04:54;;;;;;;2.92;2.67;;;;;;;32.08;45.10;98520.34;2077204;28;20499;-52
2023/08/26 00:05:56;;;;;;;2.53;2.33;;;;;;;32.10;45.14;98524.44;2079646;28;20069;-53
2023/08/26 00:06:59;;;;;;;3.28;3.05;;;;;;;32.09;45.54;98520.03;2076263;28;20408;-50
2023/08/26 00:08:01;;;;;;;2.88;2.67;;;;;;;32.09;44.94;98522.78;2077577;28;20087;-51
2023/08/26 00:09:03;;;;;;;2.80;2.60;;;;;;;32.08;45.26;98518.41;2076132;28;20046;-54
2023/08/26 00:10:04;;;;;;;3.35;2.78;;;;;;;32.09;45.54;98521.97;2075987;28;20042;-54
2023/08/26 00:11:06;;;;;;;2.92;2.28;;;;;;;32.05;45.19;98519.00;2076460;28;20061;-54
2023/08/26 00:12:08;;;;;;;3.65;2.92;;;;;;;32.08;45.70;98525.84;2078860;28;20069;-53
2023/08/26 00:13:10;;;;;;;3.17;2.70;;;;;;;32.08;45.23;98518.41;2078442;28;20056;-50
2023/08/26 00:14:10;;;;;;;2.72;2.53;;;;;;;32.05;45.31;98517.09;2076407;28;20049;-52
2023/08/26 00:15:12;;;;;;;2.63;2.33;;;;;;;32.05;45.79;98511.59;2076190;28;20051;-54
2023/08/26 00:16:14;;;;;;;3.97;2.90;;;;;;;32.07;45.37;98513.22;2074819;28;20045;-54
2023/08/26 00:17:16;;;;;;;4.32;3.33;;;;;;;32.07;45.25;98511.31;2077329;28;20515;-52
2023/08/26 00:18:16;;;;;;;3.17;2.97;;;;;;;32.05;45.48;98511.59;2075809;28;20056;-53
2023/08/26 00:19:20;;;;;;;2.90;2.70;;;;;;;32.08;45.75;98510.19;2077045;28;20478;-54
2023/08/26 00:20:21;;;;;;;2.72;2.53;;;;;;;32.08;45.31;98510.19;2076006;28;20393;-51
2023/08/26 00:21:24;;;;;;;2.63;2.42;;;;;;;32.09;45.53;98520.03;2079127;28;20184;-53
2023/08/26 00:22:25;;;;;;;2.20;2.10;;;;;;;32.08;45.27;98510.19;2078327;28;20045;-52
2023/08/26 00:23:27;;;;;;;2.78;2.58;;;;;;;32.06;45.25;98504.16;2076202;28;20124;-54
2023/08/26 00:24:28;;;;;;;2.88;2.58;;;;;;;32.08;45.67;98510.19;2077473;28;20531;-53
2023/08/26 00:25:29;;;;;;;3.00;2.80;;;;;;;32.07;45.72;98514.06;2075512;28;20055;-53
2023/08/26 00:26:30;;;;;;;3.10;2.88;;;;;;;32.07;45.16;98504.97;2078424;28;20045;-53
2023/08/26 00:27:32;;;;;;;3.50;3.20;;;;;;;32.07;44.97;98507.72;2079120;28;20136;-53
2023/08/26 00:28:33;;;;;;;2.78;2.58;;;;;;;32.08;44.93;98506.63;2078390;28;20049;-54
2023/08/26 00:29:35;;;;;;;2.90;2.60;;;;;;;32.07;45.59;98502.25;2078071;28;20045;-54
2023/08/26 00:30:35;;;;;;;3.00;2.80;;;;;;;32.07;45.27;98502.25;2086612;28;20079;-52
2023/08/26 00:31:37;;;;;;;2.47;2.28;;;;;;;32.07;45.55;98503.06;2084149;28;20037;-53
2023/08/26 00:32:38;;;;;;;3.45;3.15;;;;;;;32.07;45.60;98494.00;2082397;28;20049;-52
2023/08/26 00:33:39;;;;;;;3.17;2.88;;;;;;;32.05;45.38;98499.81;2082733;28;20359;-54
2023/08/26 00:34:43;;;;;;;3.15;2.85;;;;;;;32.06;45.30;98495.94;2084026;28;20045;-53
2023/08/26 00:35:43;;;;;;;3.42;3.13;;;;;;;32.05;45.34;98495.13;2076475;28;20096;-53
2023/08/26 00:36:47;;;;;;;3.13;2.83;;;;;;;32.05;45.04;98500.63;2074625;28;20455;-55
2023/08/26 00:37:48;;;;;;;3.20;2.90;;;;;;;32.05;45.65;98499.81;2076009;28;20520;-54
2023/08/26 00:38:50;;;;;;;3.10;2.80;;;;;;;32.02;45.34;98501.22;2074845;28;20056;-53
2023/08/26 00:39:51;;;;;;;2.88;2.30;;;;;;;32.02;45.33;98494.91;2075868;28;20078;-54
2023/08/26 00:40:53;;;;;;;2.65;2.45;;;;;;;31.99;45.29;98490.84;2076187;28;20045;-53
2023/08/26 00:41:53;;;;;;;3.05;2.75;;;;;;;32.02;45.16;98497.66;2076196;28;20076;-54
2023/08/26 00:42:55;;;;;;;2.85;2.65;;;;;;;32.01;45.21;98493.25;2074885;28;20068;-50
2023/08/26 00:43:56;;;;;;;2.42;2.22;;;;;;;32.02;45.48;98486.69;2075209;28;20124;-51
2023/08/26 00:44:58;;;;;;;3.03;2.83;;;;;;;32.02;45.71;98494.91;2075826;28;20489;-51
2023/08/26 00:45:59;;;;;;;2.85;2.65;;;;;;;32.01;45.93;98485.03;2076198;28;20046;-54
2023/08/26 00:47:01;;;;;;;2.90;2.70;;;;;;;32.02;45.24;98489.44;2075010;28;20650;-55
2023/08/26 00:48:02;;;;;;;2.80;2.60;;;;;;;32.01;45.60;98476.81;2075623;28;20073;-54
2023/08/26 00:49:05;;;;;;;3.47;3.20;;;;;;;32.03;45.50;98474.59;2074024;28;20505;-54
2023/08/26 00:50:06;;;;;;;3.47;3.17;;;;;;;32.01;45.32;98476.81;2076619;28;20096;-53
2023/08/26 00:51:08;;;;;;;2.58;2.38;;;;;;;31.99;45.33;98479.06;2076485;28;20168;-51
2023/08/26 00:52:11;;;;;;;2.47;2.28;;;;;;;32.01;45.68;98474.91;2075258;28;20049;-53
2023/08/26 00:53:15;;;;;;;3.78;3.47;;;;;;;32.01;45.74;98476.81;2077848;28;20057;-54
2023/08/26 00:54:17;;;;;;;2.65;2.45;;;;;;;31.98;45.38;98472.75;2078739;28;20049;-53
2023/08/26 00:55:19;;;;;;;3.08;2.88;;;;;;;31.99;45.34;98479.06;2077922;28;20519;-52
2023/08/26 00:56:21;;;;;;;2.67;2.42;;;;;;;32.00;45.52;98481.47;2078050;28;20069;-52
2023/08/26 00:57:23;;;;;;;2.92;2.72;;;;;;;31.99;45.15;98473.56;2078701;28;20045;-53
2023/08/26 00:58:24;;;;;;;2.63;2.42;;;;;;;32.00;45.25;98475.19;2080700;28;20658;-54
2023/08/26 00:59:26;;;;;;;2.83;2.60;;;;;;;32.01;45.20;98482.28;2078152;28;20046;-54
2023/08/26 01:00:27;;;;;;;2.78;2.58;;;;;;;32.01;45.25;98474.91;2078017;28;20049;-53
2023/08/26 01:01:32;;;;;;;3.33;2.78;;;;;;;32.01;45.28;98479.56;2078310;28;20054;-53
2023/08/26 01:02:33;;;;;;;2.38;2.17;;;;;;;31.98;45.57;98471.91;2079301;28;20052;-52
2023/08/26 01:03:35;;;;;;;3.38;3.08;;;;;;;31.98;45.15;98472.75;2077320;28;20060;-52
2023/08/26 01:04:36;;;;;;;3.17;2.97;;;;;;;31.99;45.27;98476.31;2080370;28;20548;-54
2023/08/26 01:05:38;;;;;;;3.03;2.72;;;;;;;31.99;45.24;98462.59;2077161;28;20929;-50
2023/08/26 01:06:39;;;;;;;3.17;2.88;;;;;;;31.99;45.79;98462.59;2079274;28;20085;-52
2023/08/26 01:07:42;;;;;;;3.88;3.50;;;;;;;31.98;45.40;98461.78;2078205;28;20335;-52
2023/08/26 01:08:43;;;;;;;3.20;2.90;;;;;;;31.99;45.40;98465.34;2080242;28;20111;-53
2023/08/26 01:09:45;;;;;;;2.35;2.15;;;;;;;31.99;45.61;98465.34;2078741;28;20145;-51
2023/08/26 01:10:58;;;;;;;2.67;2.47;;;;;;;32.01;45.27;98471.31;2077563;28;20049;-54
2023/08/26 01:12:07;;;;;;;2.80;2.60;;;;;;;31.98;45.29;98471.91;2076939;28;20065;-54
2023/08/26 01:13:14;;;;;;;2.92;2.70;;;;;;;31.97;45.27;98462.06;2078276;28;20052;-51
2023/08/26 01:14:23;;;;;;;3.35;3.05;;;;;;;31.97;45.22;98464.81;2079898;28;20059;-53
2023/08/26 01:15:27;;;;;;;3.28;2.97;;;;;;;31.97;45.76;98462.88;2079392;28;20069;-53
2023/08/26 01:16:32;;;;;;;2.85;2.40;;;;;;;31.95;45.88;98461.53;2079143;28;20048;-53
2023/08/26 01:17:33;;;;;;;3.05;2.75;;;;;;;31.96;45.74;98454.97;2077526;28;20061;-54
2023/08/26 01:18:35;;;;;;;3.00;2.78;;;;;;;31.96;45.85;98458.50;2079147;28;20427;-51
2023/08/26 01:19:38;;;;;;;2.95;2.75;;;;;;;31.98;45.13;98458.19;2069268;28;20060;-51
2023/08/26 01:20:41;;;;;;;2.90;2.60;;;;;;;31.97;45.63;98459.31;2076767;28;20042;-51
2023/08/26 01:21:46;;;;;;;2.92;2.72;;;;;;;31.96;45.70;98463.19;2079297;28;20049;-50
2023/08/26 01:22:51;;;;;;;3.28;3.03;;;;;;;31.97;45.33;98462.06;2086056;28;20065;-53
2023/08/26 01:23:53;;;;;;;2.83;2.63;;;;;;;31.96;45.63;98466.75;2078087;28;20141;-50
2023/08/26 01:24:56;;;;;;;3.08;2.83;;;;;;;31.97;45.14;98470.28;2078610;28;20060;-53
2023/08/26 01:25:59;;;;;;;2.78;2.58;;;;;;;31.96;45.33;98458.50;2077675;28;20049;-53
2023/08/26 01:27:00;;;;;;;2.85;2.58;;;;;;;31.96;45.49;98453.03;2074969;28;20413;-53
2023/08/26 01:28:01;;;;;;;2.80;2.58;;;;;;;31.97;45.70;98453.84;2079969;28;20076;-53
2023/08/26 01:29:03;;;;;;;2.47;2.28;;;;;;;31.96;45.27;98453.03;2089105;28;20098;-52
2023/08/26 01:30:06;;;;;;;2.88;2.63;;;;;;;31.96;45.79;98452.22;2084997;28;20049;-52
2023/08/26 01:31:11;;;;;;;3.22;2.80;;;;;;;31.97;45.41;98451.09;2087278;28;20060;-53
2023/08/26 01:32:18;;;;;;;3.47;3.05;;;;;;;31.96;45.79;98453.03;2087619;28;20048;-53
2023/08/26 01:33:25;;;;;;;2.58;2.38;;;;;;;31.96;45.24;98455.78;2087296;28;20049;-51
2023/08/26 01:34:30;;;;;;;2.65;2.45;;;;;;;31.95;45.22;98453.31;2087864;28;20423;-54
2023/08/26 01:35:37;;;;;;;2.45;2.25;;;;;;;31.94;45.28;98454.44;2083450;28;20045;-50
2023/08/26 01:36:43;;;;;;;2.78;2.58;;;;;;;31.94;45.42;98448.94;2082657;28;20775;-53
2023/08/26 01:37:46;;;;;;;2.70;2.50;;;;;;;31.94;45.86;98451.69;2084382;28;20052;-53
2023/08/26 01:38:47;;;;;;;2.85;2.65;;;;;;;31.94;45.28;98449.75;2076827;28;20073;-50
2023/08/26 01:39:52;;;;;;;3.03;2.70;;;;;;;31.96;45.55;98452.22;2077864;28;20053;-53
2023/08/26 01:40:56;;;;;;;3.03;2.83;;;;;;;31.94;45.66;98449.75;2076068;28;20054;-52
2023/08/26 01:42:00;;;;;;;2.83;2.63;;;;;;;31.94;45.28;98449.75;2079332;28;20052;-53
2023/08/26 01:43:03;;;;;;;2.60;2.40;;;;;;;31.94;45.77;98443.47;2086538;28;20466;-50
2023/08/26 01:44:05;;;;;;;2.70;2.50;;;;;;;31.94;45.43;98443.47;2084213;28;20049;-53
2023/08/26 01:45:07;;;;;;;3.17;2.88;;;;;;;31.95;45.14;98442.34;2078555;28;20338;-54
2023/08/26 01:46:08;;;;;;;2.63;2.42;;;;;;;31.93;45.77;98437.16;2082319;28;20069;-53
2023/08/26 01:47:10;;;;;;;2.90;2.70;;;;;;;31.94;45.36;98443.47;2083337;28;20045;-52
2023/08/26 01:48:11;;;;;;;2.92;2.70;;;;;;;31.94;45.85;98440.72;2081430;28;20048;-54
2023/08/26 01:49:13;;;;;;;3.30;2.78;;;;;;;31.93;45.79;98448.13;2084344;28;20048;-53
2023/08/26 01:50:14;;;;;;;2.75;2.55;;;;;;;31.95;45.54;98450.56;2082068;28;20538;-54
2023/08/26 01:51:17;;;;;;;3.35;2.97;;;;;;;31.95;45.73;98445.09;2084422;28;20072;-53
2023/08/26 01:52:18;;;;;;;3.67;2.88;;;;;;;31.93;45.76;98442.66;2081268;28;20049;-52
2023/08/26 01:53:20;;;;;;;2.70;2.50;;;;;;;31.93;45.87;98447.28;2082862;28;20056;-49
2023/08/26 01:54:20;;;;;;;2.75;2.53;;;;;;;31.92;45.77;98440.19;2080468;28;20128;-54
2023/08/26 01:55:23;;;;;;;3.10;2.63;;;;;;;31.93;45.77;98442.66;2085855;28;20041;-54
2023/08/26 01:56:24;;;;;;;2.60;2.40;;;;;;;31.93;45.50;98447.28;2082538;28;20057;-55
2023/08/26 01:57:25;;;;;;;3.13;2.92;;;;;;;31.93;45.41;98445.41;2082832;28;20069;-51
2023/08/26 01:58:27;;;;;;;2.78;2.40;;;;;;;31.93;45.78;98442.66;2083214;28;20052;-53
2023/08/26 01:59:28;;;;;;;2.72;2.40;;;;;;;31.92;45.23;98446.50;2082362;28;20045;-52
2023/08/26 02:00:29;;;;;;;3.08;2.88;;;;;;;31.93;45.84;98452.78;2084440;28;20067;-52
2023/08/26 02:01:33;;;;;;;3.15;2.95;;;;;;;31.93;45.09;98455.53;2083195;28;20089;-53
2023/08/26 02:02:34;;;;;;;2.97;2.75;;;;;;;31.92;45.57;98448.41;2082799;28;20049;-51
2023/08/26 02:03:35;;;;;;;2.90;2.70;;;;;;;31.92;45.46;98448.41;2085232;28;20312;-53
2023/08/26 02:04:38;;;;;;;3.20;2.67;;;;;;;31.92;45.53;98449.22;2086110;28;20551;-53
2023/08/26 02:05:39;;;;;;;3.40;3.13;;;;;;;31.92;45.72;98446.50;2082492;28;20114;-51
2023/08/26 02:06:40;;;;;;;2.95;2.75;;;;;;;31.93;45.73;98444.56;2083699;28;20412;-53
2023/08/26 02:07:42;;;;;;;2.95;2.75;;;;;;;31.93;45.42;98444.56;2082294;28;20045;-53
2023/08/26 02:08:43;;;;;;;3.35;2.65;;;;;;;31.93;45.38;98444.56;2075705;28;20045;-55
2023/08/26 02:09:45;;;;;;;3.03;2.80;;;;;;;31.92;45.79;98435.50;2073687;28;21514;-50
2023/08/26 02:10:54;;;;;;;2.60;2.40;;;;;;;31.91;45.39;98441.28;2069848;28;20045;-54
2023/08/26 02:11:56;;;;;;;3.03;2.83;;;;;;;31.90;45.75;98437.72;2072272;28;20133;-52
2023/08/26 02:12:57;;;;;;;3.40;2.97;;;;;;;31.93;45.41;98437.16;2079034;28;20052;-51
2023/08/26 02:13:59;;;;;;;2.80;2.60;;;;;;;31.92;45.79;98438.25;2072850;28;20565;-52
2023/08/26 02:15:01;;;;;;;2.83;2.60;;;;;;;31.93;45.35;98436.31;2076872;28;20168;-54
2023/08/26 02:16:03;;;;;;;2.92;2.72;;;;;;;31.91;45.93;98422.94;2074643;28;20046;-53
2023/08/26 02:17:04;;;;;;;3.00;2.80;;;;;;;31.92;45.18;98431.97;2076131;28;20045;-55
2023/08/26 02:18:05;;;;;;;2.78;2.58;;;;;;;31.92;45.86;98431.97;2074605;28;20052;-53
2023/08/26 02:19:06;;;;;;;3.17;2.88;;;;;;;31.92;45.50;98431.97;2076544;28;20056;-49
2023/08/26 02:20:08;;;;;;;2.90;2.70;;;;;;;31.92;45.66;98431.97;2074669;28;20080;-52
2023/08/26 02:21:11;;;;;;;2.85;2.65;;;;;;;31.92;45.81;98429.22;2075076;28;20041;-51
2023/08/26 02:22:12;;;;;;;2.72;2.53;;;;;;;31.91;45.18;98431.16;2074531;28;20046;-54
2023/08/26 02:23:14;;;;;;;3.28;2.97;;;;;;;31.91;45.79;98433.06;2080737;28;20051;-51
2023/08/26 02:24:14;;;;;;;3.58;2.80;;;;;;;31.91;45.48;98428.41;2076606;28;20045;-54
2023/08/26 02:25:17;;;;;;;3.15;2.88;;;;;;;31.91;45.74;98431.16;2079561;28;20415;-51
2023/08/26 02:26:19;;;;;;;3.20;2.90;;;;;;;31.92;45.79;98429.22;2076405;28;20315;-54
2023/08/26 02:27:21;;;;;;;3.35;3.05;;;;;;;31.90;45.74;98426.75;2080566;28;20334;-50
2023/08/26 02:28:22;;;;;;;4.85;2.70;;;;;;;31.90;45.46;98428.66;2076642;28;20056;-53
2023/08/26 02:29:24;;;;;;;2.95;2.75;;;;;;;31.91;45.82;98424.81;2083268;28;20045;-53
2023/08/26 02:30:24;;;;;;;2.80;2.60;;;;;;;31.91;45.78;98422.09;2077179;28;20045;-54
2023/08/26 02:31:26;;;;;;;2.80;2.60;;;;;;;31.91;45.67;98427.56;2083156;28;20041;-50
2023/08/26 02:32:28;;;;;;;3.22;2.92;;;;;;;31.90;45.61;98426.75;2078053;28;20052;-53
2023/08/26 02:33:30;;;;;;;2.72;2.53;;;;;;;31.90;45.75;98421.28;2079817;28;20041;-54
2023/08/26 02:34:31;;;;;;;2.95;2.75;;;;;;;31.91;45.40;98433.06;2078230;28;20103;-52
2023/08/26 02:35:34;;;;;;;3.00;2.80;;;;;;;31.90;45.72;98429.50;2079962;28;20050;-53
2023/08/26 02:36:35;;;;;;;2.40;2.30;;;;;;;31.90;45.48;98432.25;2077907;28;20056;-51
2023/08/26 02:37:37;;;;;;;2.72;2.53;;;;;;;31.87;45.92;98421.84;2078355;28;20439;-53
2023/08/26 02:38:38;;;;;;;3.45;3.15;;;;;;;31.89;45.51;98430.59;2078958;28;20404;-50
2023/08/26 02:39:40;;;;;;;3.40;2.88;;;;;;;31.88;45.48;98422.69;2078215;28;20132;-53
2023/08/26 02:40:41;;;;;;;3.13;2.92;;;;;;;31.87;45.49;98424.59;2081083;28;20091;-53
2023/08/26 02:41:44;;;;;;;2.70;2.47;;;;;;;31.89;45.66;98418.81;2075852;28;20042;-54
2023/08/26 02:42:45;;;;;;;4.13;2.78;;;;;;;31.87;45.48;98415.53;2085602;28;20060;-53
2023/08/26 02:43:47;;;;;;;3.40;3.20;;;;;;;31.87;45.81;98413.63;2076390;28;20063;-53
2023/08/26 02:44:48;;;;;;;3.00;2.70;;;;;;;31.89;45.24;98416.88;2082925;28;20428;-54
2023/08/26 02:45:53;;;;;;;2.88;2.67;;;;;;;31.89;45.31;98422.38;2085477;28;20041;-54
2023/08/26 02:46:54;;;;;;;2.85;2.65;;;;;;;31.87;45.45;98413.63;2090725;28;20073;-54
2023/08/26 02:47:57;;;;;;;3.63;3.33;;;;;;;31.87;45.48;98416.34;2086964;28;20668;-51
2023/08/26 02:48:58;;;;;;;3.50;3.20;;;;;;;31.88;45.69;98417.19;2087216;28;20049;-53
2023/08/26 02:50:00;;;;;;;3.33;3.03;;;;;;;31.86;45.76;98414.72;2086025;28;20080;-53
2023/08/26 02:51:02;;;;;;;2.95;2.75;;;;;;;31.86;45.40;98416.66;2087990;28;20094;-53
2023/08/26 02:52:04;;;;;;;3.20;2.83;;;;;;;31.87;45.70;98410.88;2085809;28;20480;-54
2023/08/26 02:53:05;;;;;;;3.47;3.22;;;;;;;31.87;45.37;98415.53;2088304;28;20041;-52
2023/08/26 02:54:07;;;;;;;2.95;2.75;;;;;;;31.87;45.36;98418.28;2084690;28;20048;-53
2023/08/26 02:55:09;;;;;;;3.40;3.10;;;;;;;31.85;45.37;98406.81;2088089;28;20049;-52
2023/08/26 02:56:11;;;;;;;3.22;2.95;;;;;;;31.85;45.85;98412.31;2085493;28;20049;-53
2023/08/26 02:57:13;;;;;;;3.00;2.80;;;;;;;31.85;45.26;98402.16;2089280;28;20052;-53
2023/08/26 02:58:15;;;;;;;2.85;2.65;;;;;;;31.85;45.27;98409.56;2083409;28;20123;-53
2023/08/26 02:59:16;;;;;;;2.75;2.55;;;;;;;31.87;45.42;98407.31;2087961;28;20045;-54
2023/08/26 03:00:18;;;;;;;3.80;3.45;;;;;;;31.83;45.46;98407.91;2085888;28;20047;-50
2023/08/26 03:01:19;;;;;;;3.17;2.95;;;;;;;31.85;45.84;98406.81;2090312;28;20075;-54
2023/08/26 03:02:24;;;;;;;3.13;2.92;;;;;;;31.85;45.75;98412.31;2085831;28;20055;-53
2023/08/26 03:03:25;;;;;;;3.20;2.90;;;;;;;31.83;45.97;98404.38;2086075;28;20064;-54
2023/08/26 03:04:27;;;;;;;2.70;2.50;;;;;;;31.85;45.37;98402.16;2085812;28;20048;-54
2023/08/26 03:05:28;;;;;;;3.05;2.85;;;;;;;31.83;45.38;98402.44;2087769;28;20081;-54
2023/08/26 03:06:31;;;;;;;3.70;3.03;;;;;;;31.84;45.42;98403.25;2086491;28;20044;-54
2023/08/26 03:07:31;;;;;;;2.60;2.40;;;;;;;31.83;45.96;98396.94;2088591;28;20049;-52
2023/08/26 03:08:33;;;;;;;3.35;3.05;;;;;;;31.82;45.34;98395.31;2086169;28;20044;-52
2023/08/26 03:09:34;;;;;;;3.00;2.78;;;;;;;31.83;45.37;98393.41;2088256;28;20056;-54
2023/08/26 03:10:36;;;;;;;3.00;2.80;;;;;;;31.82;45.76;98398.06;2086090;28;20096;-50
2023/08/26 03:11:37;;;;;;;2.90;2.70;;;;;;;31.82;45.85;98400.00;2085746;28;20037;-54
2023/08/26 03:12:40;;;;;;;2.90;2.70;;;;;;;31.83;45.94;98405.16;2085120;28;20171;-51
2023/08/26 03:13:41;;;;;;;2.70;2.50;;;;;;;31.82;45.52;98398.06;2087474;28;20047;-56
2023/08/26 03:14:43;;;;;;;2.72;2.53;;;;;;;31.82;45.45;98400.81;2084728;28;20049;-52
2023/08/26 03:15:44;;;;;;;3.05;2.78;;;;;;;31.83;45.92;98401.63;2076447;28;20053;-54
2023/08/26 03:16:45;;;;;;;3.05;2.80;;;;;;;31.83;45.51;98398.88;2075687;28;20063;-56
2023/08/26 03:17:47;;;;;;;3.00;2.70;;;;;;;31.82;45.88;98397.25;2084447;28;20165;-52
2023/08/26 03:18:48;;;;;;;3.00;2.80;;;;;;;31.82;45.46;98403.56;2083316;28;20071;-54
2023/08/26 03:19:49;;;;;;;3.13;2.85;;;;;;;31.83;45.99;98404.38;2075995;28;20049;-52
2023/08/26 03:20:51;;;;;;;3.05;2.85;;;;;;;31.83;45.89;98410.66;2074485;28;20545;-55
2023/08/26 03:21:52;;;;;;;3.13;2.83;;;;;;;31.81;45.78;98407.38;2075541;28;20053;-52
2023/08/26 03:22:54;;;;;;;3.00;2.72;;;;;;;31.81;45.66;98412.88;2075931;28;20052;-54
2023/08/26 03:23:55;;;;;;;3.38;3.15;;;;;;;31.81;46.01;98412.88;2074537;28;20065;-54
2023/08/26 03:24:57;;;;;;;2.67;2.47;;;;;;;31.82;45.41;98414.53;2076616;28;20168;-56
2023/08/26 03:25:58;;;;;;;5.05;3.15;;;;;;;31.82;45.86;98414.53;2075404;28;20068;-54
2023/08/26 03:27:00;;;;;;;3.13;2.88;;;;;;;31.82;45.67;98420.00;2077284;28;20053;-52
2023/08/26 03:28:03;;;;;;;2.78;2.58;;;;;;;31.83;45.41;98418.06;2074921;28;20049;-56
2023/08/26 03:29:05;;;;;;;2.88;2.67;;;;;;;31.80;45.99;98422.22;2075447;28;20092;-52
2023/08/26 03:30:07;;;;;;;2.75;2.55;;;;;;;31.82;45.88;98419.19;2073367;28;20045;-53
2023/08/26 03:31:09;;;;;;;2.90;2.40;;;;;;;31.82;45.41;98425.50;2073079;28;20054;-52
2023/08/26 03:32:10;;;;;;;3.30;3.03;;;;;;;31.81;45.58;98423.03;2074884;28;20483;-50
2023/08/26 03:33:11;;;;;;;4.15;3.30;;;;;;;31.81;45.86;98417.53;2077513;28;20056;-53
2023/08/26 03:34:12;;;;;;;2.97;2.78;;;;;;;31.82;45.85;98419.19;2075389;28;20073;-49
2023/08/26 03:35:14;;;;;;;3.20;2.90;;;;;;;31.79;45.47;98426.09;2075668;28;20056;-51
2023/08/26 03:36:15;;;;;;;3.15;2.85;;;;;;;31.79;45.78;98420.59;2074613;28;20059;-49
2023/08/26 03:37:17;;;;;;;3.38;3.08;;;;;;;31.79;45.96;98420.59;2076956;28;20138;-53
2023/08/26 03:38:17;;;;;;;3.78;3.47;;;;;;;31.81;45.72;98423.84;2075629;28;20073;-50
2023/08/26 03:39:19;;;;;;;3.00;2.80;;;;;;;31.80;45.94;98427.72;2074350;28;20045;-53
2023/08/26 03:40:22;;;;;;;3.25;2.95;;;;;;;31.80;45.30;98432.38;2075706;28;20048;-51
2023/08/26 03:41:24;;;;;;;3.03;2.75;;;;;;;31.79;45.82;98425.28;2076643;28;20049;-52
2023/08/26 03:42:25;;;;;;;3.72;3.42;;;;;;;31.79;45.32;98428.81;2074204;28;20077;-56
2023/08/26 03:43:28;;;;;;;3.17;2.97;;;;;;;31.79;45.73;98431.56;2073642;28;20074;-55
2023/08/26 03:44:29;;;;;;;2.80;2.60;;;;;;;31.78;45.82;98431.84;2073961;28;20125;-52
2023/08/26 03:45:31;;;;;;;3.17;2.75;;;;;;;31.78;45.37;98429.91;2083073;28;20261;-50
2023/08/26 03:46:32;;;;;;;3.10;2.90;;;;;;;31.79;45.79;98430.75;2080635;28;20052;-52
2023/08/26 03:47:34;;;;;;;3.10;2.80;;;;;;;31.80;45.44;98429.63;2084766;28;20044;-53
2023/08/26 03:48:35;;;;;;;3.13;2.83;;;;;;;31.78;45.51;98432.66;2074263;28;20053;-51
2023/08/26 03:49:37;;;;;;;2.75;2.55;;;;;;;31.78;45.94;98434.59;2083866;28;20327;-50
2023/08/26 03:50:38;;;;;;;3.63;3.33;;;;;;;31.77;45.45;98436.53;2074550;28;20048;-49
2023/08/26 03:51:38;;;;;;;3.00;2.78;;;;;;;31.76;45.79;98432.16;2083466;28;20067;-51
2023/08/26 03:52:40;;;;;;;2.95;2.67;;;;;;;31.77;45.53;98439.28;2082511;28;20037;-50
2023/08/26 03:53:41;;;;;;;3.38;3.10;;;;;;;31.77;45.86;98432.97;2076918;28;20098;-50
2023/08/26 03:54:43;;;;;;;2.90;2.70;;;;;;;31.77;45.32;98432.97;2073316;28;20473;-52
2023/08/26 03:55:44;;;;;;;2.80;2.60;;;;;;;31.76;45.88;98431.31;2084943;28;20052;-52
2023/08/26 03:56:46;;;;;;;2.90;2.67;;;;;;;31.77;45.66;98425.56;2081501;28;20053;-55
2023/08/26 03:57:47;;;;;;;2.90;2.70;;;;;;;31.78;45.90;98434.59;2083724;28;20239;-53
2023/08/26 03:58:52;;;;;;;5.45;2.83;;;;;;;31.76;45.31;98423.94;2082823;28;20048;-54
2023/08/26 03:59:52;;;;;;;3.30;3.00;;;;;;;31.77;45.24;98422.81;2083174;28;20048;-55
2023/08/26 04:01:01;;;;;;;3.13;2.83;;;;;;;31.74;45.53;98426.16;2080882;28;20133;-53
2023/08/26 04:02:02;;;;;;;3.40;3.10;;;;;;;31.75;45.50;98430.50;2083208;28;20099;-53
2023/08/26 04:03:04;;;;;;;4.18;3.10;;;;;;;31.77;45.44;98432.97;2082437;28;20049;-55
2023/08/26 04:04:05;;;;;;;3.03;2.83;;;;;;;31.76;45.28;98434.91;2085336;28;20045;-56
2023/08/26 04:05:07;;;;;;;3.10;2.90;;;;;;;31.76;45.91;98443.13;2084339;28;20110;-49
2023/08/26 04:06:08;;;;;;;3.13;2.92;;;;;;;31.77;45.81;98443.94;2083553;28;20049;-49
2023/08/26 04:07:10;;;;;;;3.63;3.33;;;;;;;31.75;45.78;98437.94;2082686;28;20053;-53
2023/08/26 04:08:11;;;;;;;3.25;2.88;;;;;;;31.75;45.11;98440.69;2083076;28;20072;-49
2023/08/26 04:09:12;;;;;;;3.22;2.92;;;;;;;31.75;45.71;98441.47;2082881;28;20045;-53
2023/08/26 04:10:13;;;;;;;3.60;3.30;;;;;;;31.75;45.47;98436.00;2085231;28;20076;-55
2023/08/26 04:11:17;;;;;;;3.00;2.80;;;;;;;31.75;45.67;98440.69;2085018;28;20052;-55
2023/08/26 04:12:17;;;;;;;3.13;2.88;;;;;;;31.74;45.75;98434.38;2083859;28;20056;-52
2023/08/26 04:13:22;;;;;;;3.33;3.08;;;;;;;31.75;45.43;98437.94;2083399;28;20123;-53
2023/08/26 04:14:24;;;;;;;2.95;2.75;;;;;;;31.73;45.34;98430.03;2080276;28;20080;-49
2023/08/26 04:15:26;;;;;;;3.25;2.95;;;;;;;31.74;45.56;98434.38;2084381;28;20124;-50
2023/08/26 04:16:28;;;;;;;3.17;2.88;;;;;;;31.73;45.67;98438.25;2081190;28;20516;-54
2023/08/26 04:17:30;;;;;;;2.90;2.70;;;;;;;31.73;45.65;98432.75;2082801;28;20064;-51
2023/08/26 04:18:31;;;;;;;3.83;2.90;;;;;;;31.74;45.19;98433.56;2082594;28;20431;-49
2023/08/26 04:19:33;;;;;;;2.97;2.78;;;;;;;31.74;45.29;98439.06;2082429;28;20067;-52
2023/08/26 04:20:34;;;;;;;2.85;2.65;;;;;;;31.75;45.63;98440.69;2084022;28;20090;-50
2023/08/26 04:21:35;;;;;;;2.92;2.72;;;;;;;31.73;45.75;98438.25;2076796;28;20119;-50
2023/08/26 04:22:36;;;;;;;3.58;3.28;;;;;;;31.73;45.16;98442.88;2073520;28;20073;-52
2023/08/26 04:23:37;;;;;;;3.35;3.05;;;;;;;31.72;45.35;98439.34;2075481;28;20414;-50
2023/08/26 04:24:39;;;;;;;3.15;2.95;;;;;;;31.72;45.15;98442.06;2076434;28;20045;-53
2023/08/26 04:25:42;;;;;;;3.05;2.80;;;;;;;31.74;45.21;98442.59;2075498;28;20052;-50
2023/08/26 04:26:43;;;;;;;2.55;2.35;;;;;;;31.72;45.42;98452.25;2073613;28;20041;-54
2023/08/26 04:27:44;;;;;;;3.45;2.90;;;;;;;31.74;45.27;98455.50;2084090;28;20063;-52
2023/08/26 04:28:46;;;;;;;3.28;3.00;;;;;;;31.72;45.40;98450.31;2083021;28;20131;-49
2023/08/26 04:29:48;;;;;;;3.60;3.25;;;;;;;31.72;45.54;98447.56;2084118;28;20053;-50
2023/08/26 04:30:50;;;;;;;3.05;2.75;;;;;;;31.72;45.49;98449.50;2082888;28;20488;-54
2023/08/26 04:31:51;;;;;;;3.38;3.08;;;;;;;31.71;45.76;98440.47;2082520;28;20060;-55
2023/08/26 04:32:53;;;;;;;3.42;3.13;;;;;;;31.71;45.50;98440.47;2081853;28;20055;-54
2023/08/26 04:33:54;;;;;;;2.80;2.60;;;;;;;31.72;45.45;98442.06;2080120;28;20056;-52
2023/08/26 04:34:55;;;;;;;5.00;3.45;;;;;;;31.72;45.28;98441.28;2084299;28;20055;-53
2023/08/26 04:35:56;;;;;;;2.63;2.42;;;;;;;31.73;45.48;98438.25;2083925;28;20045;-49
2023/08/26 04:36:58;;;;;;;3.05;2.80;;;;;;;31.73;45.36;98443.72;2084337;28;20049;-52
2023/08/26 04:37:59;;;;;;;3.50;3.20;;;;;;;31.72;45.18;98441.28;2082898;28;20053;-56
2023/08/26 04:39:02;;;;;;;3.42;3.13;;;;;;;31.72;45.26;98436.59;2085348;28;20095;-50
2023/08/26 04:40:12;;;;;;;3.40;3.17;;;;;;;31.72;45.29;98447.56;2080512;28;20500;-50
2023/08/26 04:41:14;;;;;;;5.95;3.22;;;;;;;31.70;45.01;98444.28;2072581;28;20079;-54
2023/08/26 04:42:15;;;;;;;3.15;2.95;;;;;;;31.72;45.27;98438.53;2075384;28;20093;-54
2023/08/26 04:43:17;;;;;;;3.92;3.63;;;;;;;31.72;45.28;98441.28;2075016;28;20045;-50
2023/08/26 04:44:17;;;;;;;3.90;3.58;;;;;;;31.72;44.95;98449.50;2074218;28;20149;-52
2023/08/26 04:45:20;;;;;;;4.00;3.47;;;;;;;31.71;45.17;98451.44;2075303;28;20495;-53
2023/08/26 04:46:23;;;;;;;3.67;3.33;;;;;;;31.72;44.97;98452.25;2074529;28;20041;-52
2023/08/26 04:47:25;;;;;;;3.20;2.90;;;;;;;31.72;45.13;98453.03;2075390;28;20045;-50
2023/08/26 04:48:29;;;;;;;2.92;2.72;;;;;;;31.74;45.34;98455.50;2074719;28;20083;-52
2023/08/26 04:49:31;;;;;;;3.92;3.13;;;;;;;31.73;45.17;98453.84;2072544;28;20041;-53
2023/08/26 04:50:33;;;;;;;3.92;3.63;;;;;;;31.71;45.25;98448.69;2072043;28;20144;-53
2023/08/26 04:51:33;;;;;;;3.85;3.42;;;;;;;31.72;44.79;98457.72;2074253;28;20073;-55
2023/08/26 04:52:37;;;;;;;3.75;2.83;;;;;;;31.70;45.15;98451.72;2075703;28;20053;-51